YPCC

Cocos (Keeling) Islands Airport

Airport
ICAO code
YPCC
IATA Code
CCK
Summary
ICAO Region
APAC
ICAO Territory
Location

,

Serving
Cocos Keeling Island
Elevation
10 ft
Coordinates
12° 11' 18" S , 96° 50' 2" E
Metar
YPCC 251930Z AUTO 13017KT 9999 // SCT023 BKN089 26/23 Q1011

Airport map

Aerial View

SKYbrary Partners:

Safety knowledge contributed by: